sensor_id;sensor_type;location;lat;lon;timestamp;temperature;humidity
20319;DHT22;10317;47.254;11.314;2023-10-08T00:01:08;13.80;99.90
20319;DHT22;10317;47.254;11.314;2023-10-08T00:03:42;13.80;99.90
20319;DHT22;10317;47.254;11.314;2023-10-08T00:06:14;13.80;99.90
20319;DHT22;10317;47.254;11.314;2023-10-08T00:08:40;13.80;99.90
20319;DHT22;10317;47.254;11.314;2023-10-08T00:11:06;13.80;99.90
20319;DHT22;10317;47.254;11.314;2023-10-08T00:13:33;13.80;99.90
20319;DHT22;10317;47.254;11.314;2023-10-08T00:16:13;13.80;99.90
20319;DHT22;10317;47.254;11.314;2023-10-08T00:18:43;13.80;99.90
20319;DHT22;10317;47.254;11.314;2023-10-08T00:21:18;13.80;99.90
20319;DHT22;10317;47.254;11.314;2023-10-08T00:23:46;13.80;99.90
20319;DHT22;10317;47.254;11.314;2023-10-08T00:26:22;13.80;99.90
20319;DHT22;10317;47.254;11.314;2023-10-08T00:29:02;13.80;99.90
20319;DHT22;10317;47.254;11.314;2023-10-08T00:31:32;13.80;99.90
20319;DHT22;10317;47.254;11.314;2023-10-08T00:34:03;13.80;99.90
20319;DHT22;10317;47.254;11.314;2023-10-08T00:36:31;13.80;99.90
20319;DHT22;10317;47.254;11.314;2023-10-08T00:38:57;13.80;99.90
20319;DHT22;10317;47.254;11.314;2023-10-08T00:41:26;13.80;99.90
20319;DHT22;10317;47.254;11.314;2023-10-08T00:43:58;13.80;99.90
20319;DHT22;10317;47.254;11.314;2023-10-08T00:46:27;13.80;99.90
20319;DHT22;10317;47.254;11.314;2023-10-08T00:48:59;13.80;99.90
20319;DHT22;10317;47.254;11.314;2023-10-08T00:51:43;13.70;99.90
20319;DHT22;10317;47.254;11.314;2023-10-08T00:54:12;13.80;99.90
20319;DHT22;10317;47.254;11.314;2023-10-08T00:56:46;13.70;99.90
20319;DHT22;10317;47.254;11.314;2023-10-08T00:59:12;13.80;99.90
20319;DHT22;10317;47.254;11.314;2023-10-08T01:01:39;13.70;99.90
20319;DHT22;10317;47.254;11.314;2023-10-08T01:04:05;13.70;99.90
20319;DHT22;10317;47.254;11.314;2023-10-08T01:06:38;13.70;99.90
20319;DHT22;10317;47.254;11.314;2023-10-08T01:09:05;13.80;99.90
20319;DHT22;10317;47.254;11.314;2023-10-08T01:11:43;13.80;99.90
20319;DHT22;10317;47.254;11.314;2023-10-08T01:14:16;13.70;99.90
20319;DHT22;10317;47.254;11.314;2023-10-08T01:16:46;13.70;99.90
20319;DHT22;10317;47.254;11.314;2023-10-08T01:19:18;13.70;99.90
20319;DHT22;10317;47.254;11.314;2023-10-08T01:21:45;13.70;99.90
20319;DHT22;10317;47.254;11.314;2023-10-08T01:24:11;13.70;99.90
20319;DHT22;10317;47.254;11.314;2023-10-08T01:26:42;13.70;99.90
20319;DHT22;10317;47.254;11.314;2023-10-08T01:29:11;13.70;99.90
20319;DHT22;10317;47.254;11.314;2023-10-08T01:31:45;13.70;99.90
20319;DHT22;10317;47.254;11.314;2023-10-08T01:34:12;13.70;99.90
20319;DHT22;10317;47.254;11.314;2023-10-08T01:36:42;13.70;99.90
20319;DHT22;10317;47.254;11.314;2023-10-08T01:39:11;13.70;99.90
20319;DHT22;10317;47.254;11.314;2023-10-08T01:41:43;13.70;99.90
20319;DHT22;10317;47.254;11.314;2023-10-08T01:44:09;13.70;99.90
20319;DHT22;10317;47.254;11.314;2023-10-08T01:46:35;13.60;99.90
20319;DHT22;10317;47.254;11.314;2023-10-08T01:49:01;13.60;99.90
20319;DHT22;10317;47.254;11.314;2023-10-08T01:51:34;13.70;99.90
20319;DHT22;10317;47.254;11.314;2023-10-08T01:54:04;13.70;99.90
20319;DHT22;10317;47.254;11.314;2023-10-08T01:56:40;13.70;99.90
20319;DHT22;10317;47.254;11.314;2023-10-08T01:59:14;13.70;99.90
20319;DHT22;10317;47.254;11.314;2023-10-08T02:01:41;13.70;99.90
20319;DHT22;10317;47.254;11.314;2023-10-08T02:04:09;13.70;99.90
20319;DHT22;10317;47.254;11.314;2023-10-08T02:06:37;13.70;99.90
20319;DHT22;10317;47.254;11.314;2023-10-08T02:09:05;13.60;99.90
20319;DHT22;10317;47.254;11.314;2023-10-08T02:14:09;13.70;99.90
20319;DHT22;10317;47.254;11.314;2023-10-08T02:16:35;13.70;99.90
20319;DHT22;10317;47.254;11.314;2023-10-08T02:19:00;13.60;99.90
20319;DHT22;10317;47.254;11.314;2023-10-08T02:21:26;13.60;99.90
20319;DHT22;10317;47.254;11.314;2023-10-08T02:23:52;13.60;99.90
20319;DHT22;10317;47.254;11.314;2023-10-08T02:26:18;13.60;99.90
20319;DHT22;10317;47.254;11.314;2023-10-08T02:28:44;13.60;99.90
20319;DHT22;10317;47.254;11.314;2023-10-08T02:31:10;13.60;99.90
20319;DHT22;10317;47.254;11.314;2023-10-08T02:33:36;13.60;99.90
20319;DHT22;10317;47.254;11.314;2023-10-08T02:36:02;13.60;99.90
20319;DHT22;10317;47.254;11.314;2023-10-08T02:38:30;13.60;99.90
20319;DHT22;10317;47.254;11.314;2023-10-08T02:41:03;13.60;99.90
20319;DHT22;10317;47.254;11.314;2023-10-08T02:43:32;13.60;99.90
20319;DHT22;10317;47.254;11.314;2023-10-08T02:46:00;13.60;99.90
20319;DHT22;10317;47.254;11.314;2023-10-08T02:48:26;13.60;99.90
20319;DHT22;10317;47.254;11.314;2023-10-08T02:50:52;13.50;99.90
20319;DHT22;10317;47.254;11.314;2023-10-08T02:53:20;13.50;99.90
20319;DHT22;10317;47.254;11.314;2023-10-08T02:55:51;13.50;99.90
20319;DHT22;10317;47.254;11.314;2023-10-08T02:58:16;13.50;99.90
20319;DHT22;10317;47.254;11.314;2023-10-08T03:00:48;13.40;99.90
20319;DHT22;10317;47.254;11.314;2023-10-08T03:03:17;13.50;99.90
20319;DHT22;10317;47.254;11.314;2023-10-08T03:05:51;13.40;99.90
20319;DHT22;10317;47.254;11.314;2023-10-08T03:08:18;13.40;99.90
20319;DHT22;10317;47.254;11.314;2023-10-08T03:10:48;13.40;99.90
20319;DHT22;10317;47.254;11.314;2023-10-08T03:13:15;13.40;99.90
20319;DHT22;10317;47.254;11.314;2023-10-08T03:15:42;13.30;99.90
20319;DHT22;10317;47.254;11.314;2023-10-08T03:18:33;13.30;99.90
20319;DHT22;10317;47.254;11.314;2023-10-08T03:21:06;13.30;99.90
20319;DHT22;10317;47.254;11.314;2023-10-08T03:23:46;13.30;99.90
20319;DHT22;10317;47.254;11.314;2023-10-08T03:26:13;13.30;99.90
20319;DHT22;10317;47.254;11.314;2023-10-08T03:28:54;13.30;99.90
20319;DHT22;10317;47.254;11.314;2023-10-08T03:31:23;13.30;99.90
20319;DHT22;10317;47.254;11.314;2023-10-08T03:34:10;13.30;99.90
20319;DHT22;10317;47.254;11.314;2023-10-08T03:36:39;13.30;99.90
20319;DHT22;10317;47.254;11.314;2023-10-08T03:39:16;13.30;99.90
20319;DHT22;10317;47.254;11.314;2023-10-08T03:41:45;13.30;99.90
20319;DHT22;10317;47.254;11.314;2023-10-08T03:44:31;13.30;99.90
20319;DHT22;10317;47.254;11.314;2023-10-08T03:46:57;13.30;99.90
20319;DHT22;10317;47.254;11.314;2023-10-08T03:49:23;13.30;99.90
20319;DHT22;10317;47.254;11.314;2023-10-08T03:51:49;13.30;99.90
20319;DHT22;10317;47.254;11.314;2023-10-08T03:54:21;13.30;99.90
20319;DHT22;10317;47.254;11.314;2023-10-08T03:56:59;13.30;99.90
20319;DHT22;10317;47.254;11.314;2023-10-08T03:59:26;13.30;99.90
20319;DHT22;10317;47.254;11.314;2023-10-08T04:02:02;13.30;99.90
20319;DHT22;10317;47.254;11.314;2023-10-08T04:04:49;13.30;99.90
20319;DHT22;10317;47.254;11.314;2023-10-08T04:07:22;13.20;99.90
20319;DHT22;10317;47.254;11.314;2023-10-08T04:10:02;13.20;99.90
20319;DHT22;10317;47.254;11.314;2023-10-08T04:12:33;13.20;99.90
20319;DHT22;10317;47.254;11.314;2023-10-08T04:15:07;13.20;99.90
20319;DHT22;10317;47.254;11.314;2023-10-08T04:17:36;13.20;99.90
20319;DHT22;10317;47.254;11.314;2023-10-08T04:20:14;13.20;99.90
20319;DHT22;10317;47.254;11.314;2023-10-08T04:23:03;13.20;99.90
20319;DHT22;10317;47.254;11.314;2023-10-08T04:25:31;13.20;99.90
20319;DHT22;10317;47.254;11.314;2023-10-08T04:27:59;13.20;99.90
20319;DHT22;10317;47.254;11.314;2023-10-08T04:30:32;13.20;99.90
20319;DHT22;10317;47.254;11.314;2023-10-08T04:32:59;13.20;99.90
20319;DHT22;10317;47.254;11.314;2023-10-08T04:35:35;13.20;99.90
20319;DHT22;10317;47.254;11.314;2023-10-08T04:38:18;13.10;99.90
20319;DHT22;10317;47.254;11.314;2023-10-08T04:40:44;13.10;99.90
20319;DHT22;10317;47.254;11.314;2023-10-08T04:43:18;13.10;99.90
20319;DHT22;10317;47.254;11.314;2023-10-08T04:48:18;13.00;99.90
20319;DHT22;10317;47.254;11.314;2023-10-08T04:50:49;13.00;99.90
20319;DHT22;10317;47.254;11.314;2023-10-08T04:53:27;13.00;99.90
20319;DHT22;10317;47.254;11.314;2023-10-08T04:56:05;12.90;99.90
20319;DHT22;10317;47.254;11.314;2023-10-08T04:58:33;12.90;99.90
20319;DHT22;10317;47.254;11.314;2023-10-08T05:01:03;12.90;99.90
20319;DHT22;10317;47.254;11.314;2023-10-08T05:03:56;12.80;99.90
20319;DHT22;10317;47.254;11.314;2023-10-08T05:06:26;12.80;99.90
20319;DHT22;10317;47.254;11.314;2023-10-08T05:09:09;12.80;99.90
20319;DHT22;10317;47.254;11.314;2023-10-08T05:11:44;12.80;99.90
20319;DHT22;10317;47.254;11.314;2023-10-08T05:14:22;12.70;99.90
20319;DHT22;10317;47.254;11.314;2023-10-08T05:17:05;12.70;99.90
20319;DHT22;10317;47.254;11.314;2023-10-08T05:19:44;12.70;99.90
20319;DHT22;10317;47.254;11.314;2023-10-08T05:22:41;12.70;99.90
20319;DHT22;10317;47.254;11.314;2023-10-08T05:25:10;12.70;99.90
20319;DHT22;10317;47.254;11.314;2023-10-08T05:27:43;12.60;99.90
20319;DHT22;10317;47.254;11.314;2023-10-08T05:30:18;12.60;99.90
20319;DHT22;10317;47.254;11.314;2023-10-08T05:33:04;12.60;99.90
20319;DHT22;10317;47.254;11.314;2023-10-08T05:35:43;12.60;99.90
20319;DHT22;10317;47.254;11.314;2023-10-08T05:38:10;12.60;99.90
20319;DHT22;10317;47.254;11.314;2023-10-08T05:40:51;12.50;99.90
20319;DHT22;10317;47.254;11.314;2023-10-08T05:43:34;12.50;99.90
20319;DHT22;10317;47.254;11.314;2023-10-08T05:46:09;12.50;99.90
20319;DHT22;10317;47.254;11.314;2023-10-08T05:48:54;12.50;99.90
20319;DHT22;10317;47.254;11.314;2023-10-08T05:51:29;12.50;99.90
20319;DHT22;10317;47.254;11.314;2023-10-08T05:54:20;12.50;99.90
20319;DHT22;10317;47.254;11.314;2023-10-08T05:57:15;12.50;99.90
20319;DHT22;10317;47.254;11.314;2023-10-08T06:00:01;12.50;99.90
20319;DHT22;10317;47.254;11.314;2023-10-08T06:02:32;12.50;99.90
20319;DHT22;10317;47.254;11.314;2023-10-08T06:04:59;12.50;99.90
20319;DHT22;10317;47.254;11.314;2023-10-08T06:07:42;12.60;99.90
20319;DHT22;10317;47.254;11.314;2023-10-08T06:10:35;12.60;99.90
20319;DHT22;10317;47.254;11.314;2023-10-08T06:13:06;12.60;99.90
20319;DHT22;10317;47.254;11.314;2023-10-08T06:15:40;12.60;99.90
20319;DHT22;10317;47.254;11.314;2023-10-08T06:18:28;12.70;99.90
20319;DHT22;10317;47.254;11.314;2023-10-08T06:20:58;12.70;99.90
20319;DHT22;10317;47.254;11.314;2023-10-08T06:23:29;12.70;99.90
20319;DHT22;10317;47.254;11.314;2023-10-08T06:26:00;12.80;99.90
20319;DHT22;10317;47.254;11.314;2023-10-08T06:28:31;12.80;99.90
20319;DHT22;10317;47.254;11.314;2023-10-08T06:31:01;12.80;99.90
20319;DHT22;10317;47.254;11.314;2023-10-08T06:33:28;12.90;99.90
20319;DHT22;10317;47.254;11.314;2023-10-08T06:35:59;12.90;99.90
20319;DHT22;10317;47.254;11.314;2023-10-08T06:38:29;12.90;99.90
20319;DHT22;10317;47.254;11.314;2023-10-08T06:40:58;13.00;99.90
20319;DHT22;10317;47.254;11.314;2023-10-08T06:43:37;13.00;99.90
20319;DHT22;10317;47.254;11.314;2023-10-08T06:46:03;13.10;99.90
20319;DHT22;10317;47.254;11.314;2023-10-08T06:48:32;13.20;99.90
20319;DHT22;10317;47.254;11.314;2023-10-08T06:51:00;13.20;99.90
20319;DHT22;10317;47.254;11.314;2023-10-08T06:53:33;13.30;99.90
20319;DHT22;10317;47.254;11.314;2023-10-08T06:55:59;13.40;99.90
20319;DHT22;10317;47.254;11.314;2023-10-08T06:58:30;13.40;99.90
20319;DHT22;10317;47.254;11.314;2023-10-08T07:00:58;13.40;99.90
20319;DHT22;10317;47.254;11.314;2023-10-08T07:03:30;13.40;99.90
20319;DHT22;10317;47.254;11.314;2023-10-08T07:05:58;13.40;99.90
20319;DHT22;10317;47.254;11.314;2023-10-08T07:08:27;13.50;99.90
20319;DHT22;10317;47.254;11.314;2023-10-08T07:10:53;13.50;99.90
20319;DHT22;10317;47.254;11.314;2023-10-08T07:13:20;13.60;99.90
20319;DHT22;10317;47.254;11.314;2023-10-08T07:15:50;13.60;99.90
20319;DHT22;10317;47.254;11.314;2023-10-08T07:18:17;13.70;99.90
20319;DHT22;10317;47.254;11.314;2023-10-08T07:20:53;13.80;99.90
20319;DHT22;10317;47.254;11.314;2023-10-08T07:23:23;13.90;99.90
20319;DHT22;10317;47.254;11.314;2023-10-08T07:28:22;14.00;99.90
20319;DHT22;10317;47.254;11.314;2023-10-08T07:30:51;14.10;99.90
20319;DHT22;10317;47.254;11.314;2023-10-08T07:33:18;14.10;99.90
20319;DHT22;10317;47.254;11.314;2023-10-08T07:35:47;14.20;99.90
20319;DHT22;10317;47.254;11.314;2023-10-08T07:38:38;14.30;99.90
20319;DHT22;10317;47.254;11.314;2023-10-08T07:41:05;14.30;99.90
20319;DHT22;10317;47.254;11.314;2023-10-08T07:43:31;14.40;99.90
20319;DHT22;10317;47.254;11.314;2023-10-08T07:45:58;14.50;99.90
20319;DHT22;10317;47.254;11.314;2023-10-08T07:48:24;14.70;99.90
20319;DHT22;10317;47.254;11.314;2023-10-08T07:50:56;14.80;99.90
20319;DHT22;10317;47.254;11.314;2023-10-08T07:53:23;14.90;99.90
20319;DHT22;10317;47.254;11.314;2023-10-08T07:55:50;15.10;99.90
20319;DHT22;10317;47.254;11.314;2023-10-08T07:58:17;15.20;99.90
20319;DHT22;10317;47.254;11.314;2023-10-08T08:00:43;15.30;99.90
20319;DHT22;10317;47.254;11.314;2023-10-08T08:03:20;15.40;99.90
20319;DHT22;10317;47.254;11.314;2023-10-08T08:05:47;15.70;99.90
20319;DHT22;10317;47.254;11.314;2023-10-08T08:08:14;16.00;99.90
20319;DHT22;10317;47.254;11.314;2023-10-08T08:10:44;16.20;99.90
20319;DHT22;10317;47.254;11.314;2023-10-08T08:13:10;16.60;99.90
20319;DHT22;10317;47.254;11.314;2023-10-08T08:15:36;16.80;99.90
20319;DHT22;10317;47.254;11.314;2023-10-08T08:18:07;17.00;99.90
20319;DHT22;10317;47.254;11.314;2023-10-08T08:20:35;17.30;99.90
20319;DHT22;10317;47.254;11.314;2023-10-08T08:23:07;17.60;99.90
20319;DHT22;10317;47.254;11.314;2023-10-08T08:25:39;17.90;99.90
20319;DHT22;10317;47.254;11.314;2023-10-08T08:28:21;18.10;99.90
20319;DHT22;10317;47.254;11.314;2023-10-08T08:30:50;18.20;99.90
20319;DHT22;10317;47.254;11.314;2023-10-08T08:33:18;18.20;99.90
20319;DHT22;10317;47.254;11.314;2023-10-08T08:36:09;18.30;99.90
20319;DHT22;10317;47.254;11.314;2023-10-08T08:38:35;18.20;99.90
20319;DHT22;10317;47.254;11.314;2023-10-08T08:41:03;18.10;99.90
20319;DHT22;10317;47.254;11.314;2023-10-08T08:43:39;17.90;99.90
20319;DHT22;10317;47.254;11.314;2023-10-08T08:46:10;17.80;99.90
20319;DHT22;10317;47.254;11.314;2023-10-08T08:48:40;17.60;99.90
20319;DHT22;10317;47.254;11.314;2023-10-08T08:51:06;17.50;99.90
20319;DHT22;10317;47.254;11.314;2023-10-08T08:53:36;17.40;99.90
20319;DHT22;10317;47.254;11.314;2023-10-08T08:56:02;17.30;99.90
20319;DHT22;10317;47.254;11.314;2023-10-08T08:58:33;17.20;99.90
20319;DHT22;10317;47.254;11.314;2023-10-08T09:01:05;17.20;99.90
20319;DHT22;10317;47.254;11.314;2023-10-08T09:03:33;17.20;99.90
20319;DHT22;10317;47.254;11.314;2023-10-08T09:05:59;17.20;99.90
20319;DHT22;10317;47.254;11.314;2023-10-08T09:08:32;17.20;99.90
20319;DHT22;10317;47.254;11.314;2023-10-08T09:10:59;17.30;99.90
20319;DHT22;10317;47.254;11.314;2023-10-08T09:13:27;17.30;99.90
20319;DHT22;10317;47.254;11.314;2023-10-08T09:16:13;17.30;99.90
20319;DHT22;10317;47.254;11.314;2023-10-08T09:18:44;17.20;99.90
20319;DHT22;10317;47.254;11.314;2023-10-08T09:21:15;17.20;99.90
20319;DHT22;10317;47.254;11.314;2023-10-08T09:23:44;17.10;99.90
20319;DHT22;10317;47.254;11.314;2023-10-08T09:26:13;17.20;99.90
20319;DHT22;10317;47.254;11.314;2023-10-08T09:28:44;17.20;99.90
20319;DHT22;10317;47.254;11.314;2023-10-08T09:31:12;17.20;99.90
20319;DHT22;10317;47.254;11.314;2023-10-08T09:33:38;17.20;99.90
20319;DHT22;10317;47.254;11.314;2023-10-08T09:36:05;17.30;99.90
20319;DHT22;10317;47.254;11.314;2023-10-08T09:38:33;17.30;99.90
20319;DHT22;10317;47.254;11.314;2023-10-08T09:40:59;17.40;99.90
20319;DHT22;10317;47.254;11.314;2023-10-08T09:43:30;17.50;99.90
20319;DHT22;10317;47.254;11.314;2023-10-08T09:48:36;17.50;99.90
20319;DHT22;10317;47.254;11.314;2023-10-08T09:51:02;17.70;99.90
20319;DHT22;10317;47.254;11.314;2023-10-08T09:53:55;18.00;99.90
20319;DHT22;10317;47.254;11.314;2023-10-08T09:56:27;18.30;99.90
20319;DHT22;10317;47.254;11.314;2023-10-08T09:58:54;18.50;99.90
20319;DHT22;10317;47.254;11.314;2023-10-08T10:01:20;18.80;99.90
20319;DHT22;10317;47.254;11.314;2023-10-08T10:03:48;18.90;99.90
20319;DHT22;10317;47.254;11.314;2023-10-08T10:06:15;19.00;99.90
20319;DHT22;10317;47.254;11.314;2023-10-08T10:08:44;19.00;99.90
20319;DHT22;10317;47.254;11.314;2023-10-08T10:11:10;18.90;99.90
20319;DHT22;10317;47.254;11.314;2023-10-08T10:13:44;18.90;99.90
20319;DHT22;10317;47.254;11.314;2023-10-08T10:16:17;18.80;99.90
20319;DHT22;10317;47.254;11.314;2023-10-08T10:18:44;18.90;99.90
20319;DHT22;10317;47.254;11.314;2023-10-08T10:21:24;18.90;99.90
20319;DHT22;10317;47.254;11.314;2023-10-08T10:23:49;18.70;99.90
20319;DHT22;10317;47.254;11.314;2023-10-08T10:26:26;18.80;99.90
20319;DHT22;10317;47.254;11.314;2023-10-08T10:31:53;19.90;99.90
20319;DHT22;10317;47.254;11.314;2023-10-08T10:34:25;20.60;99.90
20319;DHT22;10317;47.254;11.314;2023-10-08T10:36:56;20.90;99.80
20319;DHT22;10317;47.254;11.314;2023-10-08T10:39:25;21.40;98.50
20319;DHT22;10317;47.254;11.314;2023-10-08T10:42:01;21.70;96.80
20319;DHT22;10317;47.254;11.314;2023-10-08T10:44:31;22.40;97.30
20319;DHT22;10317;47.254;11.314;2023-10-08T10:46:59;22.50;97.20
20319;DHT22;10317;47.254;11.314;2023-10-08T10:49:44;22.30;97.00
20319;DHT22;10317;47.254;11.314;2023-10-08T10:52:27;22.20;96.20
20319;DHT22;10317;47.254;11.314;2023-10-08T10:55:18;21.80;96.10
20319;DHT22;10317;47.254;11.314;2023-10-08T10:57:51;21.40;96.80
20319;DHT22;10317;47.254;11.314;2023-10-08T11:00:37;21.20;97.60
20319;DHT22;10317;47.254;11.314;2023-10-08T11:03:06;21.20;98.00
20319;DHT22;10317;47.254;11.314;2023-10-08T11:05:54;21.60;98.20
20319;DHT22;10317;47.254;11.314;2023-10-08T11:08:21;22.70;97.40
20319;DHT22;10317;47.254;11.314;2023-10-08T11:10:49;23.60;95.50
20319;DHT22;10317;47.254;11.314;2023-10-08T11:13:20;24.60;93.20
20319;DHT22;10317;47.254;11.314;2023-10-08T11:15:49;25.40;91.30
20319;DHT22;10317;47.254;11.314;2023-10-08T11:18:19;26.00;88.50
20319;DHT22;10317;47.254;11.314;2023-10-08T11:20:47;26.70;84.20
20319;DHT22;10317;47.254;11.314;2023-10-08T11:23:41;27.20;79.10
20319;DHT22;10317;47.254;11.314;2023-10-08T11:26:07;27.60;78.30
20319;DHT22;10317;47.254;11.314;2023-10-08T11:28:35;27.60;78.90
20319;DHT22;10317;47.254;11.314;2023-10-08T11:31:08;27.80;76.30
20319;DHT22;10317;47.254;11.314;2023-10-08T11:33:42;27.90;75.70
20319;DHT22;10317;47.254;11.314;2023-10-08T11:36:09;27.80;73.80
20319;DHT22;10317;47.254;11.314;2023-10-08T11:38:45;27.80;68.50
20319;DHT22;10317;47.254;11.314;2023-10-08T11:41:15;27.50;68.80
20319;DHT22;10317;47.254;11.314;2023-10-08T11:43:51;27.20;65.70
20319;DHT22;10317;47.254;11.314;2023-10-08T11:46:30;26.90;68.60
20319;DHT22;10317;47.254;11.314;2023-10-08T11:49:04;26.80;68.90
20319;DHT22;10317;47.254;11.314;2023-10-08T11:51:38;26.70;70.20
20319;DHT22;10317;47.254;11.314;2023-10-08T11:54:05;26.60;69.50
20319;DHT22;10317;47.254;11.314;2023-10-08T11:56:32;26.40;67.40
20319;DHT22;10317;47.254;11.314;2023-10-08T11:59:01;26.30;67.30
20319;DHT22;10317;47.254;11.314;2023-10-08T12:01:27;25.90;66.60
20319;DHT22;10317;47.254;11.314;2023-10-08T12:03:56;25.50;68.50
20319;DHT22;10317;47.254;11.314;2023-10-08T12:06:25;25.10;68.40
20319;DHT22;10317;47.254;11.314;2023-10-08T12:08:55;24.70;71.40
20319;DHT22;10317;47.254;11.314;2023-10-08T12:11:24;24.40;75.10
20319;DHT22;10317;47.254;11.314;2023-10-08T12:13:57;24.10;78.80
20319;DHT22;10317;47.254;11.314;2023-10-08T12:16:24;23.70;78.70
20319;DHT22;10317;47.254;11.314;2023-10-08T12:18:55;23.50;82.50
20319;DHT22;10317;47.254;11.314;2023-10-08T12:21:25;23.20;82.40
20319;DHT22;10317;47.254;11.314;2023-10-08T12:23:51;23.00;84.00
20319;DHT22;10317;47.254;11.314;2023-10-08T12:26:18;22.80;84.80
20319;DHT22;10317;47.254;11.314;2023-10-08T12:28:45;22.60;86.90
20319;DHT22;10317;47.254;11.314;2023-10-08T12:31:14;22.40;88.00
20319;DHT22;10317;47.254;11.314;2023-10-08T12:33:46;22.30;89.50
20319;DHT22;10317;47.254;11.314;2023-10-08T12:36:12;22.10;90.00
20319;DHT22;10317;47.254;11.314;2023-10-08T12:38:42;22.00;90.40
20319;DHT22;10317;47.254;11.314;2023-10-08T12:41:09;21.80;90.70
20319;DHT22;10317;47.254;11.314;2023-10-08T12:43:39;21.60;91.10
20319;DHT22;10317;47.254;11.314;2023-10-08T12:46:08;21.50;92.50
20319;DHT22;10317;47.254;11.314;2023-10-08T12:48:36;21.40;91.40
20319;DHT22;10317;47.254;11.314;2023-10-08T12:51:02;21.20;91.60
20319;DHT22;10317;47.254;11.314;2023-10-08T12:53:31;21.20;92.30
20319;DHT22;10317;47.254;11.314;2023-10-08T12:56:07;21.00;92.40
20319;DHT22;10317;47.254;11.314;2023-10-08T12:58:41;20.90;93.20
20319;DHT22;10317;47.254;11.314;2023-10-08T13:01:12;20.70;93.30
20319;DHT22;10317;47.254;11.314;2023-10-08T13:03:41;20.60;93.70
20319;DHT22;10317;47.254;11.314;2023-10-08T13:06:11;20.50;94.60
20319;DHT22;10317;47.254;11.314;2023-10-08T13:08:40;20.40;95.60
20319;DHT22;10317;47.254;11.314;2023-10-08T13:11:06;20.30;95.20
20319;DHT22;10317;47.254;11.314;2023-10-08T13:13:32;20.20;96.10
20319;DHT22;10317;47.254;11.314;2023-10-08T13:15:59;20.20;96.60
20319;DHT22;10317;47.254;11.314;2023-10-08T13:18:29;20.10;97.70
20319;DHT22;10317;47.254;11.314;2023-10-08T13:20:55;20.00;97.10
20319;DHT22;10317;47.254;11.314;2023-10-08T13:23:23;20.00;97.30
20319;DHT22;10317;47.254;11.314;2023-10-08T13:25:50;19.90;97.70
20319;DHT22;10317;47.254;11.314;2023-10-08T13:28:22;19.90;98.00
20319;DHT22;10317;47.254;11.314;2023-10-08T13:30:55;19.80;98.20
20319;DHT22;10317;47.254;11.314;2023-10-08T13:33:21;19.70;98.30
20319;DHT22;10317;47.254;11.314;2023-10-08T13:35:51;19.70;98.70
20319;DHT22;10317;47.254;11.314;2023-10-08T13:38:20;19.60;98.90
20319;DHT22;10317;47.254;11.314;2023-10-08T13:40:55;19.60;99.40
20319;DHT22;10317;47.254;11.314;2023-10-08T13:43:32;19.60;99.90
20319;DHT22;10317;47.254;11.314;2023-10-08T13:46:02;19.50;99.70
20319;DHT22;10317;47.254;11.314;2023-10-08T13:48:31;19.50;99.90
20319;DHT22;10317;47.254;11.314;2023-10-08T13:50:59;19.40;99.90
20319;DHT22;10317;47.254;11.314;2023-10-08T13:53:25;19.40;99.90
20319;DHT22;10317;47.254;11.314;2023-10-08T13:55:59;19.30;99.90
20319;DHT22;10317;47.254;11.314;2023-10-08T13:58:26;19.30;99.90
20319;DHT22;10317;47.254;11.314;2023-10-08T14:00:54;19.30;99.90
20319;DHT22;10317;47.254;11.314;2023-10-08T14:03:20;19.30;99.90
20319;DHT22;10317;47.254;11.314;2023-10-08T14:05:48;19.30;99.90
20319;DHT22;10317;47.254;11.314;2023-10-08T14:08:17;19.30;99.90
20319;DHT22;10317;47.254;11.314;2023-10-08T14:10:44;19.20;99.90
20319;DHT22;10317;47.254;11.314;2023-10-08T14:13:10;19.30;99.90
20319;DHT22;10317;47.254;11.314;2023-10-08T14:15:36;19.20;99.90
20319;DHT22;10317;47.254;11.314;2023-10-08T14:18:10;19.30;99.90
20319;DHT22;10317;47.254;11.314;2023-10-08T14:20:37;19.30;99.90
20319;DHT22;10317;47.254;11.314;2023-10-08T14:23:06;19.30;99.90
20319;DHT22;10317;47.254;11.314;2023-10-08T14:25:31;19.30;99.90
20319;DHT22;10317;47.254;11.314;2023-10-08T14:28:00;19.30;99.90
20319;DHT22;10317;47.254;11.314;2023-10-08T14:30:33;19.30;99.90
20319;DHT22;10317;47.254;11.314;2023-10-08T14:33:06;19.30;99.90
20319;DHT22;10317;47.254;11.314;2023-10-08T14:35:34;19.20;99.90
20319;DHT22;10317;47.254;11.314;2023-10-08T14:38:18;19.10;99.90
20319;DHT22;10317;47.254;11.314;2023-10-08T14:41:02;19.10;99.90
20319;DHT22;10317;47.254;11.314;2023-10-08T14:43:46;19.00;99.90
20319;DHT22;10317;47.254;11.314;2023-10-08T14:46:14;19.00;99.90
20319;DHT22;10317;47.254;11.314;2023-10-08T14:48:40;18.90;99.90
20319;DHT22;10317;47.254;11.314;2023-10-08T14:51:06;18.90;99.90
20319;DHT22;10317;47.254;11.314;2023-10-08T14:53:41;18.80;99.90
20319;DHT22;10317;47.254;11.314;2023-10-08T14:56:08;18.80;99.90
20319;DHT22;10317;47.254;11.314;2023-10-08T14:58:34;18.70;99.90
20319;DHT22;10317;47.254;11.314;2023-10-08T15:01:00;18.70;99.90
20319;DHT22;10317;47.254;11.314;2023-10-08T15:03:26;18.60;99.90
20319;DHT22;10317;47.254;11.314;2023-10-08T15:05:52;18.60;99.90
20319;DHT22;10317;47.254;11.314;2023-10-08T15:08:18;18.50;99.90
20319;DHT22;10317;47.254;11.314;2023-10-08T15:10:44;18.50;99.90
20319;DHT22;10317;47.254;11.314;2023-10-08T15:13:12;18.50;99.90
20319;DHT22;10317;47.254;11.314;2023-10-08T15:15:38;18.40;99.90
20319;DHT22;10317;47.254;11.314;2023-10-08T15:18:06;18.40;99.90
20319;DHT22;10317;47.254;11.314;2023-10-08T15:20:32;18.40;99.90
20319;DHT22;10317;47.254;11.314;2023-10-08T15:22:59;18.30;99.90
20319;DHT22;10317;47.254;11.314;2023-10-08T15:25:25;18.30;99.90
20319;DHT22;10317;47.254;11.314;2023-10-08T15:27:51;18.20;99.90
20319;DHT22;10317;47.254;11.314;2023-10-08T15:30:18;18.20;99.90
20319;DHT22;10317;47.254;11.314;2023-10-08T15:32:46;18.20;99.90
20319;DHT22;10317;47.254;11.314;2023-10-08T15:35:17;18.10;99.90
20319;DHT22;10317;47.254;11.314;2023-10-08T15:37:47;18.10;99.90
20319;DHT22;10317;47.254;11.314;2023-10-08T15:40:14;18.00;99.90
20319;DHT22;10317;47.254;11.314;2023-10-08T15:42:46;18.00;99.90
20319;DHT22;10317;47.254;11.314;2023-10-08T15:45:13;17.90;99.90
20319;DHT22;10317;47.254;11.314;2023-10-08T15:47:39;17.90;99.90
20319;DHT22;10317;47.254;11.314;2023-10-08T15:50:05;17.90;99.90
20319;DHT22;10317;47.254;11.314;2023-10-08T15:52:38;17.90;99.90